createdAt,value
2018-05-10T00:00:09.438Z,0
2018-05-10T00:01:09.220Z,0
2018-05-10T00:02:09.750Z,0
2018-05-10T00:03:09.508Z,0
2018-05-10T00:04:09.491Z,0
2018-05-10T00:05:09.824Z,0
2018-05-10T00:06:09.891Z,0
2018-05-10T00:07:09.908Z,0
2018-05-10T00:08:09.356Z,0
2018-05-10T00:09:09.640Z,0
2018-05-10T00:10:09.662Z,0
2018-05-10T00:11:09.702Z,0
2018-05-10T00:12:09.701Z,0
2018-05-10T00:13:09.973Z,0
2018-05-10T00:14:09.781Z,0
2018-05-10T00:15:09.785Z,0
2018-05-10T00:16:10.062Z,0
2018-05-10T00:17:10.081Z,0
2018-05-10T00:18:10.090Z,0
2018-05-10T00:19:09.341Z,0
2018-05-10T00:20:09.873Z,0
2018-05-10T00:21:09.631Z,0
2018-05-10T00:22:10.332Z,0
2018-05-10T00:23:09.707Z,0
2018-05-10T00:24:09.962Z,0
2018-05-10T00:25:10.054Z,0
2018-05-10T00:26:09.752Z,0
2018-05-10T00:27:09.503Z,0
2018-05-10T00:28:09.562Z,0
2018-05-10T00:29:10.096Z,0
2018-05-10T00:30:10.388Z,0
2018-05-10T00:31:10.473Z,0
2018-05-10T00:32:10.444Z,0
2018-05-10T00:33:09.647Z,0
2018-05-10T00:34:10.493Z,0
2018-05-10T00:35:09.986Z,0
2018-05-10T00:36:09.783Z,0
2018-05-10T00:37:09.737Z,0
2018-05-10T00:38:10.690Z,0
2018-05-10T00:39:09.796Z,0
2018-05-10T00:40:10.061Z,0
2018-05-10T00:41:10.461Z,0
2018-05-10T00:42:10.163Z,0
2018-05-10T00:43:10.147Z,0
2018-05-10T00:44:10.233Z,0
2018-05-10T00:45:10.726Z,0
2018-05-10T00:46:10.762Z,0
2018-05-10T00:47:10.544Z,0
2018-05-10T00:48:10.561Z,0
2018-05-10T00:49:10.564Z,0
2018-05-10T00:50:10.323Z,0
2018-05-10T00:51:10.830Z,0
2018-05-10T00:52:10.905Z,0
2018-05-10T00:53:10.660Z,0
2018-05-10T00:54:10.718Z,0
2018-05-10T00:55:10.180Z,0
2018-05-10T00:56:10.730Z,0
2018-05-10T00:57:10.753Z,0
2018-05-10T00:58:11.032Z,0
2018-05-10T00:59:10.520Z,0
2018-05-10T01:00:10.563Z,0
2018-05-10T01:01:10.844Z,0
2018-05-10T01:02:10.605Z,0
2018-05-10T01:03:11.340Z,0
2018-05-10T01:04:10.918Z,0
2018-05-10T01:05:10.701Z,0
2018-05-10T01:06:10.930Z,0
2018-05-10T01:07:10.948Z,0
2018-05-10T01:08:11.017Z,0
2018-05-10T01:09:11.042Z,0
2018-05-10T01:10:10.784Z,0
2018-05-10T01:11:11.089Z,0
2018-05-10T01:12:11.318Z,0
2018-05-10T01:13:11.390Z,0
2018-05-10T01:14:11.137Z,0
2018-05-10T01:15:10.903Z,0
2018-05-10T01:16:11.205Z,0
2018-05-10T01:17:11.228Z,0
2018-05-10T01:18:10.960Z,0
2018-05-10T01:19:11.255Z,0
2018-05-10T01:20:11.601Z,0
2018-05-10T01:21:11.596Z,0
2018-05-10T01:22:11.116Z,0
2018-05-10T01:23:11.378Z,0
2018-05-10T01:24:11.353Z,0
2018-05-10T01:25:12.461Z,0
2018-05-10T01:26:11.476Z,0
2018-05-10T01:27:10.895Z,0
2018-05-10T01:28:11.442Z,0
2018-05-10T01:29:11.758Z,0
2018-05-10T01:30:11.788Z,0
2018-05-10T01:31:11.806Z,0
2018-05-10T01:32:11.606Z,0
2018-05-10T01:33:11.620Z,0
2018-05-10T01:34:11.890Z,0
2018-05-10T01:35:11.359Z,0
2018-05-10T01:36:11.372Z,0
2018-05-10T01:37:11.717Z,0
2018-05-10T01:38:11.417Z,0
2018-05-10T01:39:11.727Z,0
2018-05-10T01:40:11.758Z,0
2018-05-10T01:41:12.049Z,0
2018-05-10T01:42:12.044Z,0
2018-05-10T01:43:11.809Z,0
2018-05-10T01:44:11.567Z,0
2018-05-10T01:45:11.344Z,0
2018-05-10T01:46:11.872Z,0
2018-05-10T01:47:12.158Z,0
2018-05-10T01:48:11.922Z,0
2018-05-10T01:49:11.712Z,0
2018-05-10T01:50:11.947Z,0
2018-05-10T01:51:12.067Z,0
2018-05-10T01:52:12.082Z,0
2018-05-10T01:53:12.318Z,0
2018-05-10T01:54:12.059Z,0
2018-05-10T01:55:12.319Z,0
2018-05-10T01:56:12.364Z,0
2018-05-10T01:57:12.396Z,0
2018-05-10T01:58:12.157Z,0
2018-05-10T01:59:11.902Z,0
2018-05-10T02:00:12.188Z,0
2018-05-10T02:01:12.510Z,0
2018-05-10T02:02:11.972Z,0
2018-05-10T02:03:12.006Z,0
2018-05-10T02:04:12.012Z,0
2018-05-10T02:05:12.337Z,0
2018-05-10T02:06:12.336Z,0
2018-05-10T02:07:12.431Z,0
2018-05-10T02:08:12.345Z,0
2018-05-10T02:09:11.869Z,0
2018-05-10T02:10:12.668Z,0
2018-05-10T02:11:12.431Z,0
2018-05-10T02:12:12.477Z,0
2018-05-10T02:13:12.201Z,0
2018-05-10T02:14:12.227Z,0
2018-05-10T02:15:12.788Z,0
2018-05-10T02:16:12.294Z,0
2018-05-10T02:17:12.848Z,0
2018-05-10T02:18:12.618Z,0
2018-05-10T02:19:12.338Z,0
2018-05-10T02:20:12.617Z,0
2018-05-10T02:21:12.680Z,0
2018-05-10T02:22:12.683Z,0
2018-05-10T02:23:12.709Z,0
2018-05-10T02:24:13.012Z,0
2018-05-10T02:25:12.490Z,0
2018-05-10T02:26:12.795Z,0
2018-05-10T02:27:12.811Z,0
2018-05-10T02:28:13.074Z,0
2018-05-10T02:29:12.860Z,0
2018-05-10T02:30:12.895Z,0
2018-05-10T02:31:12.629Z,0
2018-05-10T02:32:12.923Z,0
2018-05-10T02:33:12.969Z,0
2018-05-10T02:34:12.940Z,0
2018-05-10T02:35:13.244Z,0
2018-05-10T02:36:13.276Z,0
2018-05-10T02:37:12.780Z,0
2018-05-10T02:38:13.056Z,0
2018-05-10T02:39:13.063Z,0
2018-05-10T02:40:13.090Z,0
2018-05-10T02:41:13.387Z,0
2018-05-10T02:42:13.428Z,0
2018-05-10T02:43:13.184Z,0
2018-05-10T02:44:13.194Z,0
2018-05-10T02:45:13.562Z,0
2018-05-10T02:46:12.981Z,0
2018-05-10T02:47:12.716Z,0
2018-05-10T02:48:13.559Z,0
2018-05-10T02:49:13.559Z,0
2018-05-10T02:50:13.054Z,0
2018-05-10T02:51:13.615Z,0
2018-05-10T02:52:13.634Z,0
2018-05-10T02:53:13.635Z,0
2018-05-10T02:54:13.658Z,0
2018-05-10T02:55:13.455Z,0
2018-05-10T02:56:13.730Z,0
2018-05-10T02:57:13.765Z,0
2018-05-10T02:58:12.936Z,0
2018-05-10T02:59:13.788Z,0
2018-05-10T03:00:13.289Z,0
2018-05-10T03:01:13.568Z,0
2018-05-10T03:02:13.582Z,0
2018-05-10T03:03:13.637Z,0
2018-05-10T03:04:13.624Z,0
2018-05-10T03:05:13.368Z,0
2018-05-10T03:06:13.696Z,0
2018-05-10T03:07:13.716Z,0
2018-05-10T03:08:13.733Z,0
2018-05-10T03:09:13.739Z,0
2018-05-10T03:10:14.033Z,0
2018-05-10T03:11:13.790Z,0
2018-05-10T03:12:14.129Z,0
2018-05-10T03:13:13.826Z,0
2018-05-10T03:14:14.130Z,0
2018-05-10T03:15:13.953Z,0
2018-05-10T03:16:13.357Z,0
2018-05-10T03:17:13.928Z,0
2018-05-10T03:18:13.932Z,0
2018-05-10T03:19:13.937Z,0
2018-05-10T03:20:13.987Z,0
2018-05-10T03:21:14.026Z,0
2018-05-10T03:22:14.042Z,0
2018-05-10T03:23:14.021Z,0
2018-05-10T03:24:14.351Z,0
2018-05-10T03:25:14.371Z,0
2018-05-10T03:26:14.387Z,0
2018-05-10T03:27:14.149Z,0
2018-05-10T03:28:14.157Z,0
2018-05-10T03:29:14.465Z,0
2018-05-10T03:30:14.221Z,0
2018-05-10T03:31:14.518Z,0
2018-05-10T03:32:13.981Z,0
2018-05-10T03:33:14.123Z,0
2018-05-10T03:34:14.271Z,0
2018-05-10T03:35:14.320Z,0
2018-05-10T03:36:14.058Z,0
2018-05-10T03:37:14.377Z,0
2018-05-10T03:38:14.610Z,0
2018-05-10T03:39:14.656Z,0
2018-05-10T03:40:14.147Z,0
2018-05-10T03:41:14.695Z,0
2018-05-10T03:42:14.488Z,0
2018-05-10T03:43:14.501Z,0
2018-05-10T03:44:13.981Z,0
2018-05-10T03:45:14.509Z,0
2018-05-10T03:46:14.841Z,0
2018-05-10T03:47:14.557Z,0
2018-05-10T03:48:14.884Z,0
2018-05-10T03:49:14.635Z,0
2018-05-10T03:50:14.376Z,0
2018-05-10T03:51:14.650Z,0
2018-05-10T03:52:14.669Z,0
2018-05-10T03:53:15.012Z,0
2018-05-10T03:54:14.957Z,0
2018-05-10T03:55:15.041Z,0
2018-05-10T03:56:14.805Z,0
2018-05-10T03:57:15.039Z,0
2018-05-10T03:58:15.091Z,0
2018-05-10T03:59:15.411Z,0
2018-05-10T04:00:14.333Z,0
2018-05-10T04:01:14.613Z,0
2018-05-10T04:02:14.896Z,0
2018-05-10T04:03:14.370Z,0
2018-05-10T04:04:14.945Z,0
2018-05-10T04:05:14.942Z,0
2018-05-10T04:06:15.229Z,0
2018-05-10T04:07:15.255Z,0
2018-05-10T04:08:15.293Z,0
2018-05-10T04:09:15.323Z,0
2018-05-10T04:10:15.308Z,0
2018-05-10T04:11:15.349Z,0
2018-05-10T04:12:15.384Z,0
2018-05-10T04:13:15.347Z,0
2018-05-10T04:14:15.487Z,0
2018-05-10T04:15:15.177Z,0
2018-05-10T04:16:15.283Z,0
2018-05-10T04:17:15.208Z,0
2018-05-10T04:18:15.511Z,0
2018-05-10T04:19:15.267Z,0
2018-05-10T04:20:15.298Z,0
2018-05-10T04:21:15.557Z,0
2018-05-10T04:22:15.071Z,0
2018-05-10T04:23:15.338Z,0
2018-05-10T04:24:15.386Z,0
2018-05-10T04:25:15.475Z,0
2018-05-10T04:26:15.677Z,0
2018-05-10T04:27:15.799Z,0
2018-05-10T04:28:15.432Z,0
2018-05-10T04:29:15.730Z,0
2018-05-10T04:30:15.503Z,0
2018-05-10T04:31:15.235Z,0
2018-05-10T04:32:15.810Z,0
2018-05-10T04:33:15.559Z,0
2018-05-10T04:34:15.314Z,0
2018-05-10T04:35:15.593Z,0
2018-05-10T04:36:15.617Z,0
2018-05-10T04:37:16.018Z,0
2018-05-10T04:38:15.755Z,0
2018-05-10T04:39:15.961Z,0
2018-05-10T04:40:15.715Z,5
2018-05-10T04:41:16.090Z,5
2018-05-10T04:42:16.205Z,5
2018-05-10T04:43:16.036Z,5
2018-05-10T04:44:15.561Z,5
2018-05-10T04:45:16.168Z,5
2018-05-10T04:46:16.105Z,5
2018-05-10T04:47:16.147Z,5
2018-05-10T04:48:15.622Z,5
2018-05-10T04:49:15.874Z,5
2018-05-10T04:50:16.207Z,5
2018-05-10T04:51:15.686Z,5
2018-05-10T04:52:15.693Z,5
2018-05-10T04:53:16.006Z,5
2018-05-10T04:54:16.031Z,5
2018-05-10T04:55:16.061Z,5
2018-05-10T04:56:16.059Z,5
2018-05-10T04:57:16.346Z,5
2018-05-10T04:58:16.076Z,5
2018-05-10T04:59:15.853Z,5
2018-05-10T05:00:16.423Z,5
2018-05-10T05:01:16.461Z,5
2018-05-10T05:02:16.196Z,5
2018-05-10T05:03:15.948Z,5
2018-05-10T05:04:16.563Z,5
2018-05-10T05:05:16.534Z,5
2018-05-10T05:06:16.009Z,5
2018-05-10T05:07:15.760Z,5
2018-05-10T05:08:16.578Z,5
2018-05-10T05:09:16.751Z,5
2018-05-10T05:10:16.353Z,5
2018-05-10T05:11:16.368Z,5
2018-05-10T05:12:16.658Z,5
2018-05-10T05:13:16.693Z,5
2018-05-10T05:14:16.796Z,5
2018-05-10T05:15:16.471Z,5
2018-05-10T05:16:16.763Z,5
2018-05-10T05:17:16.491Z,5
2018-05-10T05:18:16.271Z,5
2018-05-10T05:19:16.840Z,5
2018-05-10T05:20:16.640Z,5
2018-05-10T05:21:16.606Z,5
2018-05-10T05:22:16.629Z,5
2018-05-10T05:23:16.889Z,5
2018-05-10T05:24:16.664Z,5
2018-05-10T05:25:16.937Z,5
2018-05-10T05:26:16.724Z,5
2018-05-10T05:27:16.716Z,5
2018-05-10T05:28:16.457Z,5
2018-05-10T05:29:17.038Z,5
2018-05-10T05:30:16.806Z,5
2018-05-10T05:31:16.550Z,5
2018-05-10T05:32:17.134Z,5
2018-05-10T05:33:16.599Z,5
2018-05-10T05:34:16.640Z,5
2018-05-10T05:35:17.129Z,5
2018-05-10T05:36:17.202Z,5
2018-05-10T05:37:16.929Z,5
2018-05-10T05:38:17.063Z,5
2018-05-10T05:39:16.974Z,5
2018-05-10T05:40:17.019Z,5
2018-05-10T05:41:17.517Z,5
2018-05-10T05:42:17.049Z,5
2018-05-10T05:43:17.680Z,5
2018-05-10T05:44:16.518Z,5
2018-05-10T05:45:17.104Z,5
2018-05-10T05:46:17.126Z,5
2018-05-10T05:47:16.887Z,5
2018-05-10T05:48:17.414Z,5
2018-05-10T05:49:17.454Z,5
2018-05-10T05:50:17.220Z,5
2018-05-10T05:51:17.422Z,5
2018-05-10T05:52:16.969Z,5
2018-05-10T05:53:17.549Z,5
2018-05-10T05:54:17.291Z,5
2018-05-10T05:55:17.494Z,5
2018-05-10T05:56:17.039Z,5
2018-05-10T05:57:17.384Z,5
2018-05-10T05:58:17.139Z,5
2018-05-10T05:59:17.404Z,5
2018-05-10T06:00:17.134Z,5
2018-05-10T06:01:17.431Z,5
2018-05-10T06:02:17.564Z,5
2018-05-10T06:03:17.490Z,5
2018-05-10T06:04:17.543Z,5
2018-05-10T06:05:17.791Z,5
2018-05-10T06:06:17.277Z,5
2018-05-10T06:07:17.856Z,5
2018-05-10T06:08:17.843Z,5
2018-05-10T06:09:17.881Z,5
2018-05-10T06:10:17.353Z,5
2018-05-10T06:11:17.940Z,5
2018-05-10T06:12:17.424Z,5
2018-05-10T06:13:17.452Z,5
2018-05-10T06:14:18.007Z,5
2018-05-10T06:15:17.745Z,5
2018-05-10T06:16:17.770Z,5
2018-05-10T06:17:17.804Z,5
2018-05-10T06:18:17.540Z,5
2018-05-10T06:19:18.108Z,5
2018-05-10T06:20:18.156Z,5
2018-05-10T06:21:18.168Z,5
2018-05-10T06:22:17.626Z,5
2018-05-10T06:23:17.640Z,5
2018-05-10T06:24:17.937Z,5
2018-05-10T06:25:18.630Z,10
2018-05-10T06:26:18.001Z,10
2018-05-10T06:27:18.025Z,10
2018-05-10T06:28:18.287Z,10
2018-05-10T06:29:18.047Z,10
2018-05-10T06:30:18.342Z,10
2018-05-10T06:31:18.073Z,5
2018-05-10T06:32:18.378Z,5
2018-05-10T06:33:18.420Z,5
2018-05-10T06:34:18.443Z,5
2018-05-10T06:35:18.189Z,5
2018-05-10T06:36:18.483Z,5
2018-05-10T06:37:18.495Z,5
2018-05-10T06:38:18.508Z,5
2018-05-10T06:39:17.979Z,5
2018-05-10T06:40:18.011Z,10
2018-05-10T06:41:18.041Z,10
2018-05-10T06:42:18.590Z,5
2018-05-10T06:43:18.368Z,5
2018-05-10T06:44:18.638Z,5
2018-05-10T06:45:18.406Z,10
2018-05-10T06:46:18.699Z,10
2018-05-10T06:47:18.460Z,10
2018-05-10T06:48:18.722Z,5
2018-05-10T06:49:18.783Z,5
2018-05-10T06:50:18.237Z,5
2018-05-10T06:51:18.793Z,5
2018-05-10T06:52:18.878Z,5
2018-05-10T06:53:18.594Z,10
2018-05-10T06:54:18.581Z,10
2018-05-10T06:55:18.920Z,10
2018-05-10T06:56:20.250Z,10
2018-05-10T06:57:18.422Z,10
2018-05-10T06:58:18.664Z,10
2018-05-10T06:59:18.739Z,10
2018-05-10T07:00:18.942Z,15
2018-05-10T07:01:19.115Z,15
2018-05-10T07:02:18.218Z,15
2018-05-10T07:03:18.593Z,15
2018-05-10T07:04:18.793Z,15
2018-05-10T07:05:18.614Z,20
2018-05-10T07:06:19.114Z,20
2018-05-10T07:07:18.880Z,20
2018-05-10T07:08:18.888Z,25
2018-05-10T07:09:19.027Z,25
2018-05-10T07:10:19.270Z,25
2018-05-10T07:11:18.946Z,25
2018-05-10T07:12:19.234Z,30
2018-05-10T07:13:18.975Z,30
2018-05-10T07:14:19.311Z,30
2018-05-10T07:15:18.759Z,30
2018-05-10T07:16:19.078Z,25
2018-05-10T07:17:19.091Z,25
2018-05-10T07:18:18.853Z,25
2018-05-10T07:19:19.477Z,20
2018-05-10T07:20:19.169Z,20
2018-05-10T07:21:19.584Z,20
2018-05-10T07:22:19.473Z,15
2018-05-10T07:23:19.217Z,15
2018-05-10T07:24:19.552Z,15
2018-05-10T07:25:20.237Z,15
2018-05-10T07:26:19.032Z,15
2018-05-10T07:27:19.047Z,15
2018-05-10T07:28:19.065Z,15
2018-05-10T07:29:19.642Z,15
2018-05-10T07:30:19.658Z,15
2018-05-10T07:31:19.671Z,15
2018-05-10T07:32:19.444Z,15
2018-05-10T07:33:19.697Z,15
2018-05-10T07:34:19.728Z,15
2018-05-10T07:35:19.536Z,15
2018-05-10T07:36:19.505Z,15
2018-05-10T07:37:19.541Z,15
2018-05-10T07:38:19.299Z,20
2018-05-10T07:39:19.590Z,20
2018-05-10T07:40:19.364Z,20
2018-05-10T07:41:19.880Z,20
2018-05-10T07:42:20.152Z,20
2018-05-10T07:43:19.115Z,20
2018-05-10T07:44:19.711Z,20
2018-05-10T07:45:19.985Z,20
2018-05-10T07:46:19.710Z,20
2018-05-10T07:47:19.359Z,20
2018-05-10T07:48:20.092Z,25
2018-05-10T07:49:20.079Z,25
2018-05-10T07:50:20.154Z,25
2018-05-10T07:51:20.143Z,30
2018-05-10T07:52:19.893Z,25
2018-05-10T07:53:20.353Z,25
2018-05-10T07:54:19.667Z,25
2018-05-10T07:55:20.255Z,20
2018-05-10T07:56:19.985Z,20
2018-05-10T07:57:19.985Z,20
2018-05-10T07:58:20.290Z,20
2018-05-10T07:59:20.036Z,20
2018-05-10T08:00:20.386Z,20
2018-05-10T08:01:20.097Z,20
2018-05-10T08:02:20.480Z,15
2018-05-10T08:03:20.426Z,15
2018-05-10T08:04:20.441Z,15
2018-05-10T08:05:20.235Z,15
2018-05-10T08:06:20.488Z,15
2018-05-10T08:07:20.215Z,15
2018-05-10T08:08:20.520Z,15
2018-05-10T08:09:20.283Z,15
2018-05-10T08:10:20.585Z,15
2018-05-10T08:11:20.614Z,15
2018-05-10T08:12:20.072Z,15
2018-05-10T08:13:20.619Z,15
2018-05-10T08:14:20.130Z,15
2018-05-10T08:15:20.723Z,15
2018-05-10T08:16:19.647Z,15
2018-05-10T08:17:21.070Z,15
2018-05-10T08:18:20.779Z,15
2018-05-10T08:19:20.796Z,15
2018-05-10T08:20:20.822Z,15
2018-05-10T08:21:20.845Z,15
2018-05-10T08:22:20.586Z,15
2018-05-10T08:23:20.878Z,15
2018-05-10T08:24:21.197Z,15
2018-05-10T08:25:20.676Z,15
2018-05-10T08:26:20.687Z,15
2018-05-10T08:27:20.725Z,15
2018-05-10T08:28:20.460Z,15
2018-05-10T08:29:20.752Z,15
2018-05-10T08:30:20.823Z,15
2018-05-10T08:31:20.857Z,15
2018-05-10T08:32:20.833Z,15
2018-05-10T08:33:20.596Z,15
2018-05-10T08:34:21.151Z,15
2018-05-10T08:35:21.156Z,15
2018-05-10T08:36:20.927Z,15
2018-05-10T08:37:21.230Z,15
2018-05-10T08:38:20.721Z,15
2018-05-10T08:39:20.728Z,15
2018-05-10T08:40:21.314Z,20
2018-05-10T08:41:21.116Z,20
2018-05-10T08:42:21.325Z,20
2018-05-10T08:43:21.088Z,25
2018-05-10T08:44:21.148Z,25
2018-05-10T08:45:21.441Z,25
2018-05-10T08:46:21.212Z,30
2018-05-10T08:47:21.227Z,30
2018-05-10T08:48:20.966Z,35
2018-05-10T08:49:20.981Z,35
2018-05-10T08:50:20.985Z,35
2018-05-10T08:51:21.306Z,40
2018-05-10T08:52:21.314Z,40
2018-05-10T08:53:21.091Z,45
2018-05-10T08:54:21.647Z,45
2018-05-10T08:55:21.138Z,40
2018-05-10T08:56:21.478Z,35
2018-05-10T08:57:21.187Z,30
2018-05-10T08:58:21.463Z,30
2018-05-10T08:59:21.769Z,30
2018-05-10T09:00:21.256Z,25
2018-05-10T09:01:21.901Z,25
2018-05-10T09:02:21.579Z,20
2018-05-10T09:03:21.587Z,20
2018-05-10T09:04:21.613Z,20
2018-05-10T09:05:21.925Z,15
2018-05-10T09:06:21.123Z,20
2018-05-10T09:07:21.810Z,20
2018-05-10T09:08:22.008Z,20
2018-05-10T09:09:21.764Z,20
2018-05-10T09:10:22.083Z,20
2018-05-10T09:11:22.183Z,20
2018-05-10T09:12:21.845Z,25
2018-05-10T09:13:21.041Z,25
2018-05-10T09:14:21.870Z,20
2018-05-10T09:15:21.904Z,20
2018-05-10T09:16:21.903Z,20
2018-05-10T09:17:21.679Z,20
2018-05-10T09:18:21.970Z,15
2018-05-10T09:19:22.002Z,20
2018-05-10T09:20:22.045Z,15
2018-05-10T09:21:21.831Z,15
2018-05-10T09:22:21.818Z,20
2018-05-10T09:23:22.156Z,20
2018-05-10T09:24:22.138Z,25
2018-05-10T09:25:22.210Z,25
2018-05-10T09:26:22.472Z,25
2018-05-10T09:27:22.523Z,25
2018-05-10T09:28:22.330Z,25
2018-05-10T09:29:22.308Z,30
2018-05-10T09:30:22.569Z,30
2018-05-10T09:31:22.589Z,30
2018-05-10T09:32:22.635Z,30
2018-05-10T09:33:22.133Z,30
2018-05-10T09:34:22.429Z,30
2018-05-10T09:35:22.724Z,35
2018-05-10T09:36:22.785Z,35
2018-05-10T09:37:22.474Z,35
2018-05-10T09:38:22.506Z,35
2018-05-10T09:39:23.202Z,35
2018-05-10T09:40:22.832Z,35
2018-05-10T09:41:22.613Z,40
2018-05-10T09:42:22.901Z,45
2018-05-10T09:43:22.640Z,45
2018-05-10T09:44:22.656Z,50
2018-05-10T09:45:22.429Z,50
2018-05-10T09:46:23.043Z,50
2018-05-10T09:47:22.219Z,55
2018-05-10T09:48:23.053Z,55
2018-05-10T09:49:22.552Z,55
2018-05-10T09:50:22.848Z,50
2018-05-10T09:51:22.876Z,50
2018-05-10T09:52:22.952Z,50
2018-05-10T09:53:22.941Z,50
2018-05-10T09:54:22.945Z,50
2018-05-10T09:55:23.247Z,50
2018-05-10T09:56:23.367Z,55
2018-05-10T09:57:22.739Z,55
2018-05-10T09:58:23.336Z,55
2018-05-10T09:59:23.342Z,55
2018-05-10T10:00:23.428Z,55
2018-05-10T10:01:23.411Z,55
2018-05-10T10:02:23.246Z,60
2018-05-10T10:03:23.470Z,60
2018-05-10T10:04:23.495Z,65
2018-05-10T10:05:23.255Z,65
2018-05-10T10:06:23.919Z,65
2018-05-10T10:07:23.599Z,65
2018-05-10T10:08:22.799Z,65
2018-05-10T10:09:23.095Z,65
2018-05-10T10:10:23.409Z,60
2018-05-10T10:11:23.715Z,60
2018-05-10T10:12:23.238Z,60
2018-05-10T10:13:23.498Z,60
2018-05-10T10:14:23.762Z,60
2018-05-10T10:15:23.524Z,60
2018-05-10T10:16:23.566Z,60
2018-05-10T10:17:23.352Z,60
2018-05-10T10:18:23.075Z,60
2018-05-10T10:19:23.470Z,60
2018-05-10T10:20:23.162Z,60
2018-05-10T10:21:23.987Z,55
2018-05-10T10:22:23.225Z,55
2018-05-10T10:23:23.227Z,55
2018-05-10T10:24:23.790Z,55
2018-05-10T10:25:24.398Z,55
2018-05-10T10:26:24.135Z,55
2018-05-10T10:27:24.536Z,55
2018-05-10T10:28:23.893Z,60
2018-05-10T10:29:23.657Z,60
2018-05-10T10:30:24.235Z,60
2018-05-10T10:31:24.279Z,60
2018-05-10T10:32:23.987Z,60
2018-05-10T10:33:24.056Z,60
2018-05-10T10:34:24.173Z,60
2018-05-10T10:35:24.399Z,60
2018-05-10T10:36:24.402Z,60
2018-05-10T10:37:24.512Z,60
2018-05-10T10:38:24.040Z,60
2018-05-10T10:39:24.231Z,65
2018-05-10T10:40:24.601Z,65
2018-05-10T10:41:24.544Z,65
2018-05-10T10:42:24.583Z,65
2018-05-10T10:43:24.630Z,65
2018-05-10T10:44:24.127Z,60
2018-05-10T10:45:24.751Z,60
2018-05-10T10:46:24.705Z,60
2018-05-10T10:47:24.184Z,60
2018-05-10T10:48:24.727Z,60
2018-05-10T10:49:24.791Z,60
2018-05-10T10:50:24.540Z,60
2018-05-10T10:51:24.594Z,65
2018-05-10T10:52:24.868Z,65
2018-05-10T10:53:24.892Z,60
2018-05-10T10:54:24.992Z,65
2018-05-10T10:55:24.936Z,65
2018-05-10T10:56:25.061Z,65
2018-05-10T10:57:24.749Z,65
2018-05-10T10:58:24.564Z,65
2018-05-10T10:59:25.100Z,65
2018-05-10T11:00:24.845Z,65
2018-05-10T11:01:24.602Z,70
2018-05-10T11:02:25.074Z,75
2018-05-10T11:03:25.249Z,75
2018-05-10T11:04:25.278Z,75
2018-05-10T11:05:25.002Z,70
2018-05-10T11:06:25.298Z,70
2018-05-10T11:07:25.032Z,70
2018-05-10T11:08:24.801Z,70
2018-05-10T11:09:24.926Z,65
2018-05-10T11:10:25.412Z,60
2018-05-10T11:11:24.914Z,65
2018-05-10T11:12:25.214Z,60
2018-05-10T11:13:25.256Z,60
2018-05-10T11:14:25.530Z,60
2018-05-10T11:15:25.300Z,60
2018-05-10T11:16:25.323Z,55
2018-05-10T11:17:25.610Z,55
2018-05-10T11:18:25.392Z,55
2018-05-10T11:19:25.717Z,55
2018-05-10T11:20:25.723Z,55
2018-05-10T11:21:25.198Z,55
2018-05-10T11:22:25.215Z,60
2018-05-10T11:23:25.253Z,60
2018-05-10T11:24:25.849Z,60
2018-05-10T11:25:25.875Z,65
2018-05-10T11:26:26.179Z,65
2018-05-10T11:27:26.095Z,65
2018-05-10T11:28:25.686Z,65
2018-05-10T11:29:25.185Z,65
2018-05-10T11:30:25.487Z,65
2018-05-10T11:31:26.041Z,65
2018-05-10T11:32:25.790Z,65
2018-05-10T11:33:25.399Z,65
2018-05-10T11:34:25.697Z,60
2018-05-10T11:35:25.905Z,65
2018-05-10T11:36:25.862Z,60
2018-05-10T11:37:25.774Z,60
2018-05-10T11:38:26.013Z,55
2018-05-10T11:39:26.059Z,55
2018-05-10T11:40:26.079Z,55
2018-05-10T11:41:26.333Z,55
2018-05-10T11:42:26.420Z,55
2018-05-10T11:43:26.434Z,60
2018-05-10T11:44:26.514Z,60
2018-05-10T11:45:26.449Z,60
2018-05-10T11:46:26.506Z,60
2018-05-10T11:47:26.272Z,65
2018-05-10T11:48:26.658Z,65
2018-05-10T11:49:26.100Z,65
2018-05-10T11:50:26.639Z,70
2018-05-10T11:51:26.407Z,70
2018-05-10T11:52:26.143Z,65
2018-05-10T11:53:26.705Z,65
2018-05-10T11:54:26.216Z,65
2018-05-10T11:55:26.546Z,65
2018-05-10T11:56:26.563Z,65
2018-05-10T11:57:26.475Z,65
2018-05-10T11:58:26.628Z,65
2018-05-10T11:59:26.650Z,65
2018-05-10T12:00:26.969Z,65
2018-05-10T12:01:26.995Z,65
2018-05-10T12:02:26.993Z,65
2018-05-10T12:03:27.024Z,65
2018-05-10T12:04:26.532Z,60
2018-05-10T12:05:26.568Z,60
2018-05-10T12:06:27.163Z,60
2018-05-10T12:07:26.929Z,60
2018-05-10T12:08:26.929Z,55
2018-05-10T12:09:26.978Z,55
2018-05-10T12:10:27.010Z,55
2018-05-10T12:11:27.315Z,55
2018-05-10T12:12:27.067Z,60
2018-05-10T12:13:27.377Z,60
2018-05-10T12:14:27.394Z,65
2018-05-10T12:15:27.166Z,65
2018-05-10T12:16:27.438Z,65
2018-05-10T12:17:27.529Z,70
2018-05-10T12:18:27.555Z,70
2018-05-10T12:19:27.157Z,70
2018-05-10T12:20:27.610Z,70
2018-05-10T12:21:27.069Z,70
2018-05-10T12:22:27.381Z,70
2018-05-10T12:23:27.397Z,70
2018-05-10T12:24:27.192Z,70
2018-05-10T12:25:27.510Z,70
2018-05-10T12:26:27.542Z,70
2018-05-10T12:27:26.975Z,75
2018-05-10T12:28:27.867Z,75
2018-05-10T12:29:27.610Z,75
2018-05-10T12:30:27.602Z,75
2018-05-10T12:31:27.954Z,75
2018-05-10T12:32:27.435Z,75
2018-05-10T12:33:27.472Z,75
2018-05-10T12:34:28.081Z,70
2018-05-10T12:35:27.249Z,70
2018-05-10T12:36:27.853Z,70
2018-05-10T12:37:28.189Z,70
2018-05-10T12:38:27.629Z,75
2018-05-10T12:39:27.906Z,75
2018-05-10T12:40:27.961Z,75
2018-05-10T12:41:27.753Z,75
2018-05-10T12:42:28.043Z,80
2018-05-10T12:43:27.519Z,75
2018-05-10T12:44:27.831Z,75
2018-05-10T12:45:28.121Z,75
2018-05-10T12:46:28.160Z,75
2018-05-10T12:47:28.232Z,75
2018-05-10T12:48:28.189Z,80
2018-05-10T12:49:27.439Z,80
2018-05-10T12:50:28.305Z,80
2018-05-10T12:51:28.608Z,80
2018-05-10T12:52:28.083Z,75
2018-05-10T12:53:28.702Z,70
2018-05-10T12:54:28.707Z,70
2018-05-10T12:55:28.732Z,70
2018-05-10T12:56:28.896Z,70
2018-05-10T12:57:28.234Z,65
2018-05-10T12:58:28.344Z,65
2018-05-10T12:59:28.616Z,65
2018-05-10T13:00:28.646Z,60
2018-05-10T13:01:28.659Z,60
2018-05-10T13:02:28.683Z,60
2018-05-10T13:03:28.712Z,55
2018-05-10T13:04:28.769Z,55
2018-05-10T13:05:28.796Z,60
2018-05-10T13:06:28.803Z,60
2018-05-10T13:07:28.600Z,60
2018-05-10T13:08:29.236Z,60
2018-05-10T13:09:29.161Z,55
2018-05-10T13:10:28.947Z,60
2018-05-10T13:11:29.235Z,60
2018-05-10T13:12:29.287Z,65
2018-05-10T13:13:29.652Z,65
2018-05-10T13:14:29.071Z,65
2018-05-10T13:15:29.375Z,65
2018-05-10T13:16:28.873Z,65
2018-05-10T13:17:29.179Z,65
2018-05-10T13:18:29.495Z,70
2018-05-10T13:19:29.708Z,70
2018-05-10T13:20:29.302Z,70
2018-05-10T13:21:29.562Z,65
2018-05-10T13:22:29.613Z,65
2018-05-10T13:23:29.110Z,60
2018-05-10T13:24:29.143Z,60
2018-05-10T13:25:29.146Z,60
2018-05-10T13:26:29.735Z,60
2018-05-10T13:27:30.205Z,60
2018-05-10T13:28:29.520Z,60
2018-05-10T13:29:29.638Z,60
2018-05-10T13:30:29.897Z,60
2018-05-10T13:31:29.613Z,60
2018-05-10T13:32:29.928Z,60
2018-05-10T13:33:29.970Z,55
2018-05-10T13:34:30.020Z,55
2018-05-10T13:35:29.485Z,55
2018-05-10T13:36:29.784Z,50
2018-05-10T13:37:29.554Z,50
2018-05-10T13:38:29.909Z,50
2018-05-10T13:39:29.878Z,50
2018-05-10T13:40:30.213Z,50
2018-05-10T13:41:29.984Z,45
2018-05-10T13:42:29.992Z,45
2018-05-10T13:43:30.042Z,45
2018-05-10T13:44:30.197Z,45
2018-05-10T13:45:29.551Z,45
2018-05-10T13:46:30.410Z,45
2018-05-10T13:47:31.266Z,45
2018-05-10T13:48:29.906Z,40
2018-05-10T13:49:30.212Z,40
2018-05-10T13:50:30.574Z,40
2018-05-10T13:51:30.029Z,40
2018-05-10T13:52:30.632Z,40
2018-05-10T13:53:30.339Z,40
2018-05-10T13:54:30.390Z,40
2018-05-10T13:55:30.507Z,40
2018-05-10T13:56:30.191Z,40
2018-05-10T13:57:30.490Z,40
2018-05-10T13:58:30.790Z,40
2018-05-10T13:59:30.623Z,40
2018-05-10T14:00:30.847Z,35
2018-05-10T14:01:30.588Z,35
2018-05-10T14:02:31.016Z,40
2018-05-10T14:03:30.720Z,40
2018-05-10T14:04:30.963Z,40
2018-05-10T14:05:30.475Z,40
2018-05-10T14:06:30.535Z,35
2018-05-10T14:07:30.840Z,35
2018-05-10T14:08:30.840Z,35
2018-05-10T14:09:30.968Z,30
2018-05-10T14:10:31.177Z,25
2018-05-10T14:11:30.947Z,20
2018-05-10T14:12:31.249Z,20
2018-05-10T14:13:30.746Z,20
2018-05-10T14:14:31.068Z,25
2018-05-10T14:15:31.343Z,25
2018-05-10T14:16:31.434Z,25
2018-05-10T14:17:30.860Z,30
2018-05-10T14:18:31.431Z,30
2018-05-10T14:19:31.207Z,35
2018-05-10T14:20:30.956Z,40
2018-05-10T14:21:31.002Z,40
2018-05-10T14:22:30.503Z,45
2018-05-10T14:23:31.298Z,45
2018-05-10T14:24:31.100Z,45
2018-05-10T14:25:32.074Z,45
2018-05-10T14:26:31.708Z,45
2018-05-10T14:27:31.751Z,45
2018-05-10T14:28:31.236Z,45
2018-05-10T14:29:31.523Z,45